Terminal Aerodrome Forecast
Issued by NWS Wilmington, OH

Current Version | Previous Version | Graphics & Text | Print | Product List | Glossary On
Versions: 1 2 3 4 5 6 7 8 9 10 11 12 13 14
321
FTUS41 KILN 242328
TAFDAY
TAF
KDAY 242328Z 2500/2524 10008KT P6SM SKC
     FM250100 VRB04KT P6SM SKC
     FM251400 22005KT P6SM SKC=

USA.gov is the U.S. government's official web portal to all federal, state and local government web resources and services.